Terminal Aerodrome Forecast
Issued by NWS Jackson, MS

Home | Current Version | Previous Version | Text Only | Print | Product List | Glossary On
Versions: 1 2 3 4 5 6 7 8 9 10 11 12 13 14
000
FTUS44 KMEG 172300
TAFTUP
TAF
KTUP 172331Z 1800/1824 VRB02KT P6SM SCT035 BKN150
     FM180700 00000KT P6SM OVC035
     FM181300 16003KT P6SM OVC025
     FM181900 VRB03KT P6SM BKN040=

USA.gov is the U.S. government's official web portal to all federal, state and local government web resources and services.